Terminal Aerodrome Forecast
Issued by NWS

Home | Current Version | Previous Version | Graphics & Text | Print | Product List | Glossary On
Versions: 1 2 3 4 5 6 7 8 9 10 11 12 13 14 15
000
FTUS43 KMPX 180532
TAFRNH
TAF
KRNH 180532Z 1806/1906 00000KT P6SM BKN110
     FM181600 13006KT P6SM VCSH SCT060 OVC100
     FM182000 14009KT P6SM -RA OVC060
     FM190000 13005KT P6SM OVC050=

USA.gov is the U.S. government's official web portal to all federal, state and local government web resources and services.